Monarch, Montana
Current Conditions -  °F | °C
As of 6:56 AM on Wednesday 26 Nov 2014 (Local Time) from KGFA Reporting Station
Light Snow Light Snow  
Wind Chill: -2°   Ceiling: 300
Heat Index: NA   Visibility: 2.2mi
Dew Point: -1°   Wind: 2mph
Humidity: NA   Direction: 360°N
Pressure: 30.16"   Gusts: NA
Location:  47.1°N, 110.83°W
Report Text: KGFA 261356Z 36002KT 2 1/4SM -SN OVC003 M02/M01 A3016 RMK AO2A SLP256 P0001 T10171014
Loading
Personal Weather Stations






























Interactive Weather Map New forecast layout! Learn more

10-Day Weather Forecast

Advertisements
Track Severe Weather on mobile